sensor_id;sensor_type;location;lat;lon;timestamp;pressure;altitude;pressure_sealevel;temperature;humidity
550;BME280;20066;48.764;9.176;2023-12-04T00:00:19;98357.28;;;-0.73;64.02
550;BME280;20066;48.764;9.176;2023-12-04T00:02:47;98354.28;;;-0.57;63.40
550;BME280;20066;48.764;9.176;2023-12-04T00:05:16;98346.84;;;-0.38;62.68
550;BME280;20066;48.764;9.176;2023-12-04T00:07:44;98352.50;;;-0.22;62.17
550;BME280;20066;48.764;9.176;2023-12-04T00:10:12;98339.66;;;-1.25;63.68
550;BME280;20066;48.764;9.176;2023-12-04T00:12:41;98333.59;;;-2.42;69.52
550;BME280;20066;48.764;9.176;2023-12-04T00:15:09;98333.34;;;-1.16;66.07
550;BME280;20066;48.764;9.176;2023-12-04T00:17:38;98329.78;;;-0.80;64.26
550;BME280;20066;48.764;9.176;2023-12-04T00:20:08;98326.75;;;-0.65;63.79
550;BME280;20066;48.764;9.176;2023-12-04T00:22:37;98319.63;;;-0.56;62.94
550;BME280;20066;48.764;9.176;2023-12-04T00:25:06;98314.84;;;-0.45;63.25
550;BME280;20066;48.764;9.176;2023-12-04T00:27:35;98310.13;;;-0.57;63.17
550;BME280;20066;48.764;9.176;2023-12-04T00:30:05;98304.41;;;-0.42;62.56
550;BME280;20066;48.764;9.176;2023-12-04T00:32:33;98298.38;;;-0.25;61.94
550;BME280;20066;48.764;9.176;2023-12-04T00:35:01;98300.09;;;-0.29;61.66
550;BME280;20066;48.764;9.176;2023-12-04T00:37:29;98289.56;;;-0.86;62.67
550;BME280;20066;48.764;9.176;2023-12-04T00:39:57;98283.88;;;-0.62;62.82
550;BME280;20066;48.764;9.176;2023-12-04T00:42:25;98279.47;;;-1.23;63.73
550;BME280;20066;48.764;9.176;2023-12-04T00:44:53;98282.63;;;-1.13;64.46
550;BME280;20066;48.764;9.176;2023-12-04T00:47:22;98278.53;;;-0.79;62.99
550;BME280;20066;48.764;9.176;2023-12-04T00:49:51;98285.94;;;-2.41;67.38
550;BME280;20066;48.764;9.176;2023-12-04T00:52:19;98280.16;;;-2.43;68.37
550;BME280;20066;48.764;9.176;2023-12-04T00:54:47;98283.88;;;-2.30;68.57
550;BME280;20066;48.764;9.176;2023-12-04T00:57:15;98283.16;;;-2.99;71.58
550;BME280;20066;48.764;9.176;2023-12-04T00:59:42;98273.50;;;-2.76;71.11
550;BME280;20066;48.764;9.176;2023-12-04T01:02:10;98278.50;;;-2.75;70.39
550;BME280;20066;48.764;9.176;2023-12-04T01:04:41;98266.50;;;-2.67;70.53
550;BME280;20066;48.764;9.176;2023-12-04T01:07:09;98263.72;;;-2.48;70.19
550;BME280;20066;48.764;9.176;2023-12-04T01:09:37;98259.84;;;-2.78;70.14
550;BME280;20066;48.764;9.176;2023-12-04T01:12:05;98266.69;;;-3.05;71.17
550;BME280;20066;48.764;9.176;2023-12-04T01:14:35;98270.19;;;-3.09;71.46
550;BME280;20066;48.764;9.176;2023-12-04T01:17:05;98264.16;;;-1.97;68.17
550;BME280;20066;48.764;9.176;2023-12-04T01:19:33;98257.22;;;-1.39;66.03
550;BME280;20066;48.764;9.176;2023-12-04T01:22:03;98265.56;;;-1.46;66.00
550;BME280;20066;48.764;9.176;2023-12-04T01:24:31;98260.63;;;-2.78;69.09
550;BME280;20066;48.764;9.176;2023-12-04T01:26:59;98263.66;;;-2.71;69.20
550;BME280;20066;48.764;9.176;2023-12-04T01:29:27;98259.84;;;-2.64;69.26
550;BME280;20066;48.764;9.176;2023-12-04T01:31:56;98250.78;;;-2.22;69.35
550;BME280;20066;48.764;9.176;2023-12-04T01:34:24;98244.94;;;-1.97;66.47
550;BME280;20066;48.764;9.176;2023-12-04T01:36:52;98241.19;;;-1.52;65.54
550;BME280;20066;48.764;9.176;2023-12-04T01:39:21;98241.09;;;-0.98;64.17
550;BME280;20066;48.764;9.176;2023-12-04T01:41:49;98241.28;;;-0.78;63.48
550;BME280;20066;48.764;9.176;2023-12-04T01:44:18;98240.84;;;-0.71;63.40
550;BME280;20066;48.764;9.176;2023-12-04T01:46:48;98221.53;;;-0.97;63.20
550;BME280;20066;48.764;9.176;2023-12-04T01:49:16;98218.94;;;-1.28;63.71
550;BME280;20066;48.764;9.176;2023-12-04T01:51:45;98225.38;;;-1.12;63.70
550;BME280;20066;48.764;9.176;2023-12-04T01:54:14;98221.56;;;-0.89;63.46
550;BME280;20066;48.764;9.176;2023-12-04T01:56:44;98228.09;;;-0.69;62.75
550;BME280;20066;48.764;9.176;2023-12-04T01:59:12;98230.78;;;-1.79;65.30
550;BME280;20066;48.764;9.176;2023-12-04T02:01:40;98222.69;;;-1.60;64.78
550;BME280;20066;48.764;9.176;2023-12-04T02:04:08;98231.41;;;-1.51;64.78
550;BME280;20066;48.764;9.176;2023-12-04T02:06:36;98225.13;;;-1.33;63.92
550;BME280;20066;48.764;9.176;2023-12-04T02:09:05;98232.97;;;-1.72;64.67
550;BME280;20066;48.764;9.176;2023-12-04T02:11:38;98229.91;;;-1.97;65.84
550;BME280;20066;48.764;9.176;2023-12-04T02:14:08;98223.44;;;-3.12;69.93
550;BME280;20066;48.764;9.176;2023-12-04T02:16:39;98233.47;;;-3.28;70.90
550;BME280;20066;48.764;9.176;2023-12-04T02:19:08;98223.59;;;-2.81;70.32
550;BME280;20066;48.764;9.176;2023-12-04T02:21:39;98214.16;;;-2.69;70.28
550;BME280;20066;48.764;9.176;2023-12-04T02:24:08;98205.44;;;-2.55;68.66
550;BME280;20066;48.764;9.176;2023-12-04T02:26:42;98199.03;;;-1.43;66.06
550;BME280;20066;48.764;9.176;2023-12-04T02:29:16;98195.75;;;-1.00;64.20
550;BME280;20066;48.764;9.176;2023-12-04T02:31:49;98195.22;;;-1.28;63.93
550;BME280;20066;48.764;9.176;2023-12-04T02:34:18;98200.94;;;-1.26;64.69
550;BME280;20066;48.764;9.176;2023-12-04T02:36:48;98203.94;;;-1.59;64.99
550;BME280;20066;48.764;9.176;2023-12-04T02:39:18;98195.59;;;-2.28;67.54
550;BME280;20066;48.764;9.176;2023-12-04T02:41:46;98199.44;;;-1.58;64.77
550;BME280;20066;48.764;9.176;2023-12-04T02:44:14;98205.97;;;-1.78;66.15
550;BME280;20066;48.764;9.176;2023-12-04T02:46:42;98211.78;;;-1.67;65.08
550;BME280;20066;48.764;9.176;2023-12-04T02:49:10;98208.41;;;-2.12;67.04
550;BME280;20066;48.764;9.176;2023-12-04T02:51:40;98194.94;;;-2.69;69.14
550;BME280;20066;48.764;9.176;2023-12-04T02:54:08;98186.25;;;-1.58;66.10
550;BME280;20066;48.764;9.176;2023-12-04T02:56:37;98180.03;;;-1.23;64.01
550;BME280;20066;48.764;9.176;2023-12-04T02:59:05;98174.38;;;-0.82;62.86
550;BME280;20066;48.764;9.176;2023-12-04T03:01:33;98172.19;;;-0.71;62.14
550;BME280;20066;48.764;9.176;2023-12-04T03:04:01;98161.50;;;-0.57;61.70
550;BME280;20066;48.764;9.176;2023-12-04T03:06:29;98152.16;;;-0.55;61.51
550;BME280;20066;48.764;9.176;2023-12-04T03:08:58;98152.31;;;-0.77;61.77
550;BME280;20066;48.764;9.176;2023-12-04T03:11:26;98145.47;;;-0.87;61.90
550;BME280;20066;48.764;9.176;2023-12-04T03:13:55;98143.31;;;-0.76;61.36
550;BME280;20066;48.764;9.176;2023-12-04T03:16:23;98135.84;;;-1.57;63.68
550;BME280;20066;48.764;9.176;2023-12-04T03:18:51;98139.22;;;-2.04;66.29
550;BME280;20066;48.764;9.176;2023-12-04T03:21:19;98124.25;;;-2.40;66.82
550;BME280;20066;48.764;9.176;2023-12-04T03:23:47;98128.78;;;-1.39;64.50
550;BME280;20066;48.764;9.176;2023-12-04T03:26:15;98118.88;;;-1.25;64.10
550;BME280;20066;48.764;9.176;2023-12-04T03:28:43;98119.19;;;-1.35;64.10
550;BME280;20066;48.764;9.176;2023-12-04T03:31:12;98111.78;;;-1.64;65.16
550;BME280;20066;48.764;9.176;2023-12-04T03:33:40;98120.97;;;-1.92;64.82
550;BME280;20066;48.764;9.176;2023-12-04T03:36:09;98116.78;;;-2.24;66.51
550;BME280;20066;48.764;9.176;2023-12-04T03:38:37;98101.44;;;-1.52;64.41
550;BME280;20066;48.764;9.176;2023-12-04T03:41:07;98097.91;;;-1.38;63.95
550;BME280;20066;48.764;9.176;2023-12-04T03:43:40;98088.88;;;-1.46;64.22
550;BME280;20066;48.764;9.176;2023-12-04T03:46:08;98084.31;;;-0.89;62.58
550;BME280;20066;48.764;9.176;2023-12-04T03:48:37;98080.44;;;-0.83;61.62
550;BME280;20066;48.764;9.176;2023-12-04T03:51:06;98076.06;;;-0.87;61.88
550;BME280;20066;48.764;9.176;2023-12-04T03:53:34;98077.78;;;-0.65;61.67
550;BME280;20066;48.764;9.176;2023-12-04T03:56:02;98080.56;;;-0.70;61.26
550;BME280;20066;48.764;9.176;2023-12-04T03:58:31;98077.84;;;-1.57;63.08
550;BME280;20066;48.764;9.176;2023-12-04T04:00:59;98078.41;;;-2.16;64.97
550;BME280;20066;48.764;9.176;2023-12-04T04:03:27;98075.19;;;-1.74;65.59
550;BME280;20066;48.764;9.176;2023-12-04T04:05:57;98078.53;;;-1.91;65.42
550;BME280;20066;48.764;9.176;2023-12-04T04:08:24;98084.19;;;-2.06;65.33
550;BME280;20066;48.764;9.176;2023-12-04T04:10:53;98079.75;;;-2.94;69.38
550;BME280;20066;48.764;9.176;2023-12-04T04:13:21;98077.59;;;-1.86;66.30
550;BME280;20066;48.764;9.176;2023-12-04T04:15:49;98079.19;;;-2.16;66.18
550;BME280;20066;48.764;9.176;2023-12-04T04:18:17;98068.75;;;-1.90;66.32
550;BME280;20066;48.764;9.176;2023-12-04T04:20:45;98070.47;;;-1.37;64.45
550;BME280;20066;48.764;9.176;2023-12-04T04:23:14;98067.97;;;-1.34;64.34
550;BME280;20066;48.764;9.176;2023-12-04T04:25:42;98063.03;;;-1.01;63.79
550;BME280;20066;48.764;9.176;2023-12-04T04:28:10;98057.91;;;-1.06;63.21
550;BME280;20066;48.764;9.176;2023-12-04T04:30:37;98071.22;;;-1.37;63.68
550;BME280;20066;48.764;9.176;2023-12-04T04:33:06;98068.78;;;-1.73;65.31
550;BME280;20066;48.764;9.176;2023-12-04T04:35:34;98075.09;;;-1.34;64.21
550;BME280;20066;48.764;9.176;2023-12-04T04:38:03;98066.41;;;-1.43;65.20
550;BME280;20066;48.764;9.176;2023-12-04T04:40:33;98070.94;;;-1.09;63.59
550;BME280;20066;48.764;9.176;2023-12-04T04:43:01;98064.59;;;-0.91;63.26
550;BME280;20066;48.764;9.176;2023-12-04T04:45:29;98069.06;;;-1.26;63.42
550;BME280;20066;48.764;9.176;2023-12-04T04:47:57;98074.53;;;-1.14;63.63
550;BME280;20066;48.764;9.176;2023-12-04T04:50:25;98072.81;;;-1.27;63.68
550;BME280;20066;48.764;9.176;2023-12-04T04:52:53;98068.78;;;-0.90;62.68
550;BME280;20066;48.764;9.176;2023-12-04T04:55:21;98061.16;;;-0.57;61.72
550;BME280;20066;48.764;9.176;2023-12-04T04:58:11;98065.13;;;-0.25;60.61
550;BME280;20066;48.764;9.176;2023-12-04T05:00:39;98062.94;;;-0.23;60.59
550;BME280;20066;48.764;9.176;2023-12-04T05:03:07;98057.56;;;-0.53;61.42
550;BME280;20066;48.764;9.176;2023-12-04T05:05:35;98054.19;;;-1.05;62.24
550;BME280;20066;48.764;9.176;2023-12-04T05:08:03;98058.69;;;-0.71;62.77
550;BME280;20066;48.764;9.176;2023-12-04T05:10:31;98050.44;;;-0.52;61.13
550;BME280;20066;48.764;9.176;2023-12-04T05:13:00;98038.97;;;-0.18;60.50
550;BME280;20066;48.764;9.176;2023-12-04T05:15:29;98029.13;;;-0.47;61.07
550;BME280;20066;48.764;9.176;2023-12-04T05:17:57;98024.41;;;-0.24;60.96
550;BME280;20066;48.764;9.176;2023-12-04T05:20:25;98016.34;;;0.10;60.18
550;BME280;20066;48.764;9.176;2023-12-04T05:22:53;98009.00;;;-0.22;60.13
550;BME280;20066;48.764;9.176;2023-12-04T05:25:21;98015.84;;;-0.21;60.46
550;BME280;20066;48.764;9.176;2023-12-04T05:27:52;98014.47;;;-1.00;62.15
550;BME280;20066;48.764;9.176;2023-12-04T05:30:20;98020.03;;;-0.84;62.12
550;BME280;20066;48.764;9.176;2023-12-04T05:32:50;97996.13;;;-0.33;61.10
550;BME280;20066;48.764;9.176;2023-12-04T05:35:18;97994.84;;;-0.64;62.59
550;BME280;20066;48.764;9.176;2023-12-04T05:37:47;97991.84;;;-0.08;60.90
550;BME280;20066;48.764;9.176;2023-12-04T05:40:15;97987.41;;;-0.71;61.93
550;BME280;20066;48.764;9.176;2023-12-04T05:42:44;97986.00;;;-0.68;62.25
550;BME280;20066;48.764;9.176;2023-12-04T05:45:12;97987.94;;;-2.12;67.72
550;BME280;20066;48.764;9.176;2023-12-04T05:47:40;97986.06;;;-1.20;65.41
550;BME280;20066;48.764;9.176;2023-12-04T05:50:10;97988.41;;;-1.44;66.40
550;BME280;20066;48.764;9.176;2023-12-04T05:52:39;97989.47;;;-1.02;63.67
550;BME280;20066;48.764;9.176;2023-12-04T05:55:12;97983.09;;;-1.01;65.18
550;BME280;20066;48.764;9.176;2023-12-04T05:57:44;97992.53;;;-0.66;63.28
550;BME280;20066;48.764;9.176;2023-12-04T06:00:13;97986.00;;;-0.68;64.09
550;BME280;20066;48.764;9.176;2023-12-04T06:02:42;97977.28;;;-0.60;62.94
550;BME280;20066;48.764;9.176;2023-12-04T06:05:12;97982.78;;;-0.83;63.30
550;BME280;20066;48.764;9.176;2023-12-04T06:07:40;97983.44;;;-1.20;64.53
550;BME280;20066;48.764;9.176;2023-12-04T06:10:09;97984.97;;;-0.38;62.86
550;BME280;20066;48.764;9.176;2023-12-04T06:12:37;97996.31;;;-0.38;62.13
550;BME280;20066;48.764;9.176;2023-12-04T06:15:06;97999.59;;;-0.41;62.36
550;BME280;20066;48.764;9.176;2023-12-04T06:17:35;97992.13;;;-1.20;64.44
550;BME280;20066;48.764;9.176;2023-12-04T06:20:04;97994.13;;;-1.25;65.31
550;BME280;20066;48.764;9.176;2023-12-04T06:22:35;97993.97;;;-1.03;64.02
550;BME280;20066;48.764;9.176;2023-12-04T06:25:05;97980.75;;;-0.77;63.17
550;BME280;20066;48.764;9.176;2023-12-04T06:27:33;97970.28;;;-0.56;62.80
550;BME280;20066;48.764;9.176;2023-12-04T06:30:02;97982.53;;;-0.05;61.37
550;BME280;20066;48.764;9.176;2023-12-04T06:32:31;97975.44;;;-0.22;61.14
550;BME280;20066;48.764;9.176;2023-12-04T06:35:03;97977.41;;;-0.57;62.11
550;BME280;20066;48.764;9.176;2023-12-04T06:37:31;97973.50;;;-0.42;61.06
550;BME280;20066;48.764;9.176;2023-12-04T06:40:01;97965.88;;;-0.90;61.15
550;BME280;20066;48.764;9.176;2023-12-04T06:42:30;97962.34;;;-0.56;61.65
550;BME280;20066;48.764;9.176;2023-12-04T06:44:59;97958.00;;;-0.14;60.77
550;BME280;20066;48.764;9.176;2023-12-04T06:47:31;97957.69;;;-0.51;61.70
550;BME280;20066;48.764;9.176;2023-12-04T06:49:59;97946.91;;;-0.37;62.11
550;BME280;20066;48.764;9.176;2023-12-04T06:52:27;97941.34;;;-0.44;61.96
550;BME280;20066;48.764;9.176;2023-12-04T06:54:55;97938.25;;;0.13;60.73
550;BME280;20066;48.764;9.176;2023-12-04T06:57:25;97946.13;;;0.21;59.72
550;BME280;20066;48.764;9.176;2023-12-04T06:59:53;97954.63;;;-0.23;61.15
550;BME280;20066;48.764;9.176;2023-12-04T07:02:21;97963.22;;;0.24;60.18
550;BME280;20066;48.764;9.176;2023-12-04T07:04:49;97960.91;;;0.22;60.26
550;BME280;20066;48.764;9.176;2023-12-04T07:07:18;97960.63;;;0.15;59.92
550;BME280;20066;48.764;9.176;2023-12-04T07:09:46;97953.75;;;0.23;60.12
550;BME280;20066;48.764;9.176;2023-12-04T07:12:14;97954.69;;;-0.96;62.32
550;BME280;20066;48.764;9.176;2023-12-04T07:14:44;97951.84;;;0.02;60.44
550;BME280;20066;48.764;9.176;2023-12-04T07:17:12;97947.09;;;0.17;60.25
550;BME280;20066;48.764;9.176;2023-12-04T07:19:41;97937.00;;;0.19;59.68
550;BME280;20066;48.764;9.176;2023-12-04T07:22:10;97924.09;;;0.38;59.87
550;BME280;20066;48.764;9.176;2023-12-04T07:24:38;97923.75;;;0.60;59.24
550;BME280;20066;48.764;9.176;2023-12-04T07:27:07;97935.59;;;0.13;60.10
550;BME280;20066;48.764;9.176;2023-12-04T07:29:36;97937.88;;;0.64;59.22
550;BME280;20066;48.764;9.176;2023-12-04T07:32:07;97932.06;;;0.09;59.95
550;BME280;20066;48.764;9.176;2023-12-04T07:34:35;97925.78;;;0.42;59.82
550;BME280;20066;48.764;9.176;2023-12-04T07:37:05;97927.13;;;0.49;60.16
550;BME280;20066;48.764;9.176;2023-12-04T07:39:34;97919.75;;;0.13;60.14
550;BME280;20066;48.764;9.176;2023-12-04T07:42:02;97917.44;;;0.73;59.19
550;BME280;20066;48.764;9.176;2023-12-04T07:44:39;97921.69;;;0.66;59.49
550;BME280;20066;48.764;9.176;2023-12-04T07:47:08;97918.84;;;1.04;58.32
550;BME280;20066;48.764;9.176;2023-12-04T07:49:36;97930.00;;;0.76;58.00
550;BME280;20066;48.764;9.176;2023-12-04T07:52:05;97928.47;;;0.55;59.04
550;BME280;20066;48.764;9.176;2023-12-04T07:54:34;97920.34;;;0.39;59.49
550;BME280;20066;48.764;9.176;2023-12-04T07:57:02;97918.25;;;0.86;58.72
550;BME280;20066;48.764;9.176;2023-12-04T07:59:30;97908.03;;;0.97;57.83
550;BME280;20066;48.764;9.176;2023-12-04T08:01:58;97905.13;;;0.15;61.15
550;BME280;20066;48.764;9.176;2023-12-04T08:04:28;97903.53;;;1.09;58.60
550;BME280;20066;48.764;9.176;2023-12-04T08:06:56;97917.84;;;1.08;58.74
550;BME280;20066;48.764;9.176;2023-12-04T08:09:24;97921.38;;;1.00;58.53
550;BME280;20066;48.764;9.176;2023-12-04T08:11:52;97924.91;;;0.09;60.27
550;BME280;20066;48.764;9.176;2023-12-04T08:14:23;97915.66;;;0.77;58.49
550;BME280;20066;48.764;9.176;2023-12-04T08:16:51;97892.34;;;0.38;59.10
550;BME280;20066;48.764;9.176;2023-12-04T08:19:19;97897.09;;;0.98;58.06
550;BME280;20066;48.764;9.176;2023-12-04T08:21:49;97901.78;;;0.80;58.39
550;BME280;20066;48.764;9.176;2023-12-04T08:24:17;97905.06;;;0.65;58.55
550;BME280;20066;48.764;9.176;2023-12-04T08:26:45;97884.31;;;0.67;58.37
550;BME280;20066;48.764;9.176;2023-12-04T08:29:13;97870.34;;;1.24;57.05
550;BME280;20066;48.764;9.176;2023-12-04T08:31:41;97873.75;;;1.12;57.83
550;BME280;20066;48.764;9.176;2023-12-04T08:34:10;97871.22;;;1.40;56.84
550;BME280;20066;48.764;9.176;2023-12-04T08:36:38;97857.97;;;0.71;58.02
550;BME280;20066;48.764;9.176;2023-12-04T08:39:14;97858.94;;;0.99;56.97
550;BME280;20066;48.764;9.176;2023-12-04T08:41:45;97861.78;;;0.94;57.46
550;BME280;20066;48.764;9.176;2023-12-04T08:44:27;97871.78;;;0.76;58.00
550;BME280;20066;48.764;9.176;2023-12-04T08:46:55;97870.69;;;0.77;57.75
550;BME280;20066;48.764;9.176;2023-12-04T08:49:24;97878.66;;;0.36;58.95
550;BME280;20066;48.764;9.176;2023-12-04T08:52:06;97868.41;;;0.55;57.64
550;BME280;20066;48.764;9.176;2023-12-04T08:54:39;97873.78;;;0.26;59.04
550;BME280;20066;48.764;9.176;2023-12-04T08:57:08;97870.81;;;0.48;58.94
550;BME280;20066;48.764;9.176;2023-12-04T08:59:36;97873.59;;;-0.11;59.73
550;BME280;20066;48.764;9.176;2023-12-04T09:02:04;97872.38;;;0.61;58.28
550;BME280;20066;48.764;9.176;2023-12-04T09:04:35;97872.63;;;0.15;59.57
550;BME280;20066;48.764;9.176;2023-12-04T09:07:05;97881.91;;;-0.00;59.72
550;BME280;20066;48.764;9.176;2023-12-04T09:09:37;97878.91;;;-0.49;61.42
550;BME280;20066;48.764;9.176;2023-12-04T09:12:06;97877.53;;;-0.93;62.39
550;BME280;20066;48.764;9.176;2023-12-04T09:14:35;97871.50;;;0.36;59.76
550;BME280;20066;48.764;9.176;2023-12-04T09:17:03;97871.22;;;0.17;59.18
550;BME280;20066;48.764;9.176;2023-12-04T09:19:31;97874.72;;;0.96;57.98
550;BME280;20066;48.764;9.176;2023-12-04T09:22:00;97864.34;;;1.15;57.36
550;BME280;20066;48.764;9.176;2023-12-04T09:24:43;97862.69;;;0.32;58.70
550;BME280;20066;48.764;9.176;2023-12-04T09:27:12;97862.25;;;0.96;57.70
550;BME280;20066;48.764;9.176;2023-12-04T09:29:41;97863.69;;;0.61;58.29
550;BME280;20066;48.764;9.176;2023-12-04T09:32:09;97862.41;;;0.79;57.68
550;BME280;20066;48.764;9.176;2023-12-04T09:34:37;97854.59;;;0.82;58.93
550;BME280;20066;48.764;9.176;2023-12-04T09:37:05;97854.66;;;0.62;58.86
550;BME280;20066;48.764;9.176;2023-12-04T09:39:37;97867.88;;;0.62;58.58
550;BME280;20066;48.764;9.176;2023-12-04T09:42:07;97862.72;;;0.12;60.58
550;BME280;20066;48.764;9.176;2023-12-04T09:44:36;97858.13;;;-0.00;61.59
550;BME280;20066;48.764;9.176;2023-12-04T09:47:05;97861.47;;;-0.41;63.04
550;BME280;20066;48.764;9.176;2023-12-04T09:49:34;97860.25;;;0.60;60.64
550;BME280;20066;48.764;9.176;2023-12-04T09:52:03;97857.66;;;0.72;60.53
550;BME280;20066;48.764;9.176;2023-12-04T09:54:33;97861.41;;;0.18;62.67
550;BME280;20066;48.764;9.176;2023-12-04T09:57:04;97842.94;;;1.08;59.87
550;BME280;20066;48.764;9.176;2023-12-04T09:59:34;97866.94;;;1.36;59.27
550;BME280;20066;48.764;9.176;2023-12-04T10:02:04;97867.88;;;0.95;60.32
550;BME280;20066;48.764;9.176;2023-12-04T10:04:33;97848.34;;;0.54;61.52
550;BME280;20066;48.764;9.176;2023-12-04T10:07:01;97846.03;;;-0.10;64.26
550;BME280;20066;48.764;9.176;2023-12-04T10:09:31;97839.16;;;0.72;61.66
550;BME280;20066;48.764;9.176;2023-12-04T10:11:59;97841.81;;;0.52;61.62
550;BME280;20066;48.764;9.176;2023-12-04T10:14:28;97834.09;;;0.92;60.04
550;BME280;20066;48.764;9.176;2023-12-04T10:16:58;97830.38;;;1.17;60.31
550;BME280;20066;48.764;9.176;2023-12-04T10:19:27;97817.91;;;1.17;60.31
550;BME280;20066;48.764;9.176;2023-12-04T10:21:58;97834.16;;;1.28;59.91
550;BME280;20066;48.764;9.176;2023-12-04T10:24:28;97823.53;;;1.16;61.28
550;BME280;20066;48.764;9.176;2023-12-04T10:26:57;97818.75;;;0.85;61.84
550;BME280;20066;48.764;9.176;2023-12-04T10:29:28;97823.75;;;1.23;61.24
550;BME280;20066;48.764;9.176;2023-12-04T10:32:02;97812.69;;;1.82;59.75
550;BME280;20066;48.764;9.176;2023-12-04T10:34:30;97800.66;;;1.60;59.65
550;BME280;20066;48.764;9.176;2023-12-04T10:37:02;97807.88;;;1.59;60.02
550;BME280;20066;48.764;9.176;2023-12-04T10:39:30;97808.38;;;1.77;59.64
550;BME280;20066;48.764;9.176;2023-12-04T10:41:59;97805.00;;;1.40;61.25
550;BME280;20066;48.764;9.176;2023-12-04T10:44:30;97791.91;;;1.84;59.81
550;BME280;20066;48.764;9.176;2023-12-04T10:47:04;97774.09;;;2.52;58.62
550;BME280;20066;48.764;9.176;2023-12-04T10:49:34;97779.59;;;3.22;56.57
550;BME280;20066;48.764;9.176;2023-12-04T10:52:03;97766.88;;;2.53;58.92
550;BME280;20066;48.764;9.176;2023-12-04T10:54:31;97770.41;;;2.13;59.05
550;BME280;20066;48.764;9.176;2023-12-04T10:57:01;97770.13;;;2.62;58.52
550;BME280;20066;48.764;9.176;2023-12-04T10:59:35;97760.56;;;3.04;56.17
550;BME280;20066;48.764;9.176;2023-12-04T11:02:05;97750.75;;;3.24;56.36
550;BME280;20066;48.764;9.176;2023-12-04T11:04:36;97737.75;;;3.19;56.83
550;BME280;20066;48.764;9.176;2023-12-04T11:07:06;97737.00;;;2.87;58.95
550;BME280;20066;48.764;9.176;2023-12-04T11:09:37;97728.03;;;2.60;59.84
550;BME280;20066;48.764;9.176;2023-12-04T11:12:08;97741.72;;;2.94;58.01
550;BME280;20066;48.764;9.176;2023-12-04T11:14:51;97733.59;;;2.71;58.41
550;BME280;20066;48.764;9.176;2023-12-04T11:17:22;97740.78;;;2.70;58.12
550;BME280;20066;48.764;9.176;2023-12-04T11:19:55;97732.19;;;2.93;57.74
550;BME280;20066;48.764;9.176;2023-12-04T11:22:26;97735.81;;;3.70;56.05
550;BME280;20066;48.764;9.176;2023-12-04T11:24:55;97723.22;;;2.82;56.85
550;BME280;20066;48.764;9.176;2023-12-04T11:27:23;97723.13;;;3.44;55.87
550;BME280;20066;48.764;9.176;2023-12-04T11:29:52;97724.06;;;3.71;55.87
550;BME280;20066;48.764;9.176;2023-12-04T11:32:24;97717.56;;;3.34;57.03
550;BME280;20066;48.764;9.176;2023-12-04T11:34:54;97713.28;;;2.94;58.26
550;BME280;20066;48.764;9.176;2023-12-04T11:37:23;97708.97;;;3.21;57.94
550;BME280;20066;48.764;9.176;2023-12-04T11:39:51;97703.59;;;3.02;57.76
550;BME280;20066;48.764;9.176;2023-12-04T11:42:19;97705.97;;;3.61;57.29
550;BME280;20066;48.764;9.176;2023-12-04T11:44:48;97697.28;;;4.22;56.27
550;BME280;20066;48.764;9.176;2023-12-04T11:47:16;97697.41;;;3.68;58.44
550;BME280;20066;48.764;9.176;2023-12-04T11:49:46;97679.78;;;3.25;58.47
550;BME280;20066;48.764;9.176;2023-12-04T11:52:14;97669.00;;;3.91;56.56
550;BME280;20066;48.764;9.176;2023-12-04T11:55:06;97657.50;;;3.29;58.69
550;BME280;20066;48.764;9.176;2023-12-04T11:57:38;97651.78;;;3.66;58.11
550;BME280;20066;48.764;9.176;2023-12-04T12:00:12;97634.59;;;4.02;58.18
550;BME280;20066;48.764;9.176;2023-12-04T12:02:47;97627.25;;;3.95;58.64
550;BME280;20066;48.764;9.176;2023-12-04T12:05:37;97625.94;;;3.85;58.28
550;BME280;20066;48.764;9.176;2023-12-04T12:08:08;97626.28;;;3.07;59.53
550;BME280;20066;48.764;9.176;2023-12-04T12:10:37;97617.41;;;3.38;60.50
550;BME280;20066;48.764;9.176;2023-12-04T12:13:05;97618.34;;;3.65;58.68
550;BME280;20066;48.764;9.176;2023-12-04T12:15:35;97619.22;;;3.91;57.63
550;BME280;20066;48.764;9.176;2023-12-04T12:18:05;97610.84;;;4.84;55.68
550;BME280;20066;48.764;9.176;2023-12-04T12:20:37;97617.03;;;4.65;55.58
550;BME280;20066;48.764;9.176;2023-12-04T12:23:06;97619.47;;;4.28;56.59
550;BME280;20066;48.764;9.176;2023-12-04T12:25:34;97606.44;;;4.46;55.75
550;BME280;20066;48.764;9.176;2023-12-04T12:28:02;97593.66;;;5.08;54.54
550;BME280;20066;48.764;9.176;2023-12-04T12:30:32;97590.41;;;4.65;54.81
550;BME280;20066;48.764;9.176;2023-12-04T12:33:03;97576.31;;;3.32;57.49
550;BME280;20066;48.764;9.176;2023-12-04T12:35:32;97567.03;;;4.06;56.60
550;BME280;20066;48.764;9.176;2023-12-04T12:38:04;97573.81;;;4.04;57.00
550;BME280;20066;48.764;9.176;2023-12-04T12:40:32;97586.34;;;4.03;57.93
550;BME280;20066;48.764;9.176;2023-12-04T12:43:04;97583.91;;;3.72;58.82
550;BME280;20066;48.764;9.176;2023-12-04T12:45:41;97577.47;;;4.41;55.93
550;BME280;20066;48.764;9.176;2023-12-04T12:48:12;97582.47;;;4.69;55.12
550;BME280;20066;48.764;9.176;2023-12-04T12:50:44;97574.09;;;4.21;56.43
550;BME280;20066;48.764;9.176;2023-12-04T12:53:17;97574.63;;;4.30;56.54
550;BME280;20066;48.764;9.176;2023-12-04T12:55:47;97568.31;;;4.39;56.17
550;BME280;20066;48.764;9.176;2023-12-04T12:58:16;97560.91;;;4.28;56.57
550;BME280;20066;48.764;9.176;2023-12-04T13:00:52;97565.06;;;4.79;55.65
550;BME280;20066;48.764;9.176;2023-12-04T13:03:22;97562.22;;;4.91;55.45
550;BME280;20066;48.764;9.176;2023-12-04T13:05:54;97558.81;;;4.94;54.84
550;BME280;20066;48.764;9.176;2023-12-04T13:08:23;97555.34;;;4.90;55.69
550;BME280;20066;48.764;9.176;2023-12-04T13:10:51;97560.31;;;4.65;56.73
550;BME280;20066;48.764;9.176;2023-12-04T13:13:19;97555.00;;;4.91;56.40
550;BME280;20066;48.764;9.176;2023-12-04T13:15:47;97545.16;;;5.29;54.98
550;BME280;20066;48.764;9.176;2023-12-04T13:18:15;97537.03;;;4.85;55.79
550;BME280;20066;48.764;9.176;2023-12-04T13:20:43;97524.44;;;4.85;56.29
550;BME280;20066;48.764;9.176;2023-12-04T13:23:12;97519.22;;;4.92;56.41
550;BME280;20066;48.764;9.176;2023-12-04T13:25:41;97516.59;;;5.29;56.22
550;BME280;20066;48.764;9.176;2023-12-04T13:28:10;97517.25;;;4.07;57.67
550;BME280;20066;48.764;9.176;2023-12-04T13:30:53;97515.78;;;3.64;58.68
550;BME280;20066;48.764;9.176;2023-12-04T13:33:22;97513.66;;;2.03;62.28
550;BME280;20066;48.764;9.176;2023-12-04T13:35:50;97505.19;;;2.13;64.18
550;BME280;20066;48.764;9.176;2023-12-04T13:38:18;97510.47;;;2.29;64.46